Trenton, MI

10:06 AM EDT on August 22, 2014 (GMT -0400)
Riverview Land Preserve ticket booth | Change Station
CLOSE
Current Station
Personal Weather Station
Location: Riverview, MI
Elevation: 597 ft
Nearby Weather Stations

Elev 597 ft 42.16 °N, 83.21 °W | Updated 5 minutes ago

Overcast
Overcast
72.4 °F
Feels Like 70 °F
N
1.0
Wind Variable Wind from ENE
Gusts 4.0 mph

Today
High -- | Low -- °F
--% Chance of Precip.
Yesterday
High -- | Low -- °F
Precip. -- in
6:47 AM 8:22 PM
Waning Crescent, 8% visible
Pressure 29.97 in
Visibility 5.0 miles
Clouds Overcast 900 ft
Heat Index 70 °F
Dew Point 69 °F
Humidity 88%
Rainfall 0.00 in
Snow Depth Not available.
UV 1 out of 12
Pollen 8.40 out of 12
Ozone Good
PM2.5 Moderate
Flu Activity Not available.
METAR KONZ 221354Z AUTO 07003KT 5SM BR OVC009 23/21 A2997 RMK AO2

More Conditions Fewer Conditions

Pressure 29.97 in
Visibility 5.0 miles
Clouds Overcast 900 ft
Heat Index 70 °F
Dew Point 69 °F
Humidity 88%
Rainfall 0.00 in
Snow Depth Not available.
UV 1 out of 12
Pollen 8.40 out of 12
Ozone Good
PM2.5 Moderate
Flu Activity Not available.
METAR KONZ 221354Z AUTO 07003KT 5SM BR OVC009 23/21 A2997 RMK AO2

More Conditions Fewer Conditions

10-Day Weather Forecast

Almanac

Astronomy

Aug. 22, 2014 Rise Set
Actual Time 6:47 AM EDT 8:22 PM EDT
Civil Twilight 6:18 AM EDT 8:52 PM EDT
Nautical Twilight 5:42 AM EDT 9:27 PM EDT
Astronomical Twilight 5:04 AM EDT 10:05 PM EDT
Moon 4:08 AM EDT 6:31 PM EDT
Length of Visible Light 14h 34m
Length of Day
13h 35m
Tomorrow will be 2m 38s shorter.
Waning Crescent, 8% of the Moon is Illuminated
Today
Waning Crescent
Aug 25
New
Sep 2
First Quarter
Sep 8
Full
Sep 15
Last Quarter

Today's Extremes

State Highs State Lows

Community

WunderPhotos

Upload Photos

1,746,171 photos uploaded!

Nearby

Air Quality

  Air Quality AQ Index Pollutant
Yesterday Good
PM10
Yesterday Good
OZONE
Current Moderate
PM2.5
Current Good
OZONE
Friday Moderate
PM2.5
Friday Good
OZONE
Saturday Moderate
PM2.5
Saturday Good
OZONE
Sunday Moderate
OZONE
Sunday Moderate
PM2.5

Snow Depth

Station Depth Elevation
No new snow has been reported.

Earthquake Activity

City Distance Mag. Time & Date
No recent earthquake activity has been reported nearby.
Minimum magnitude displayed is 2.5.

Coastal Water Temperatures

Place Temperature
Marblehead, OH 73.0 °F

Nearby Weather Stations